sensor_id;sensor_type;location;lat;lon;timestamp;temperature;humidity
67182;DHT22;54114;53.524;49.396;2023-04-15T00:01:30;0.90;28.00
67182;DHT22;54114;53.524;49.396;2023-04-15T00:04:01;0.90;28.10
67182;DHT22;54114;53.524;49.396;2023-04-15T00:06:29;0.90;28.10
67182;DHT22;54114;53.524;49.396;2023-04-15T00:08:58;0.80;28.10
67182;DHT22;54114;53.524;49.396;2023-04-15T00:11:29;0.80;28.20
67182;DHT22;54114;53.524;49.396;2023-04-15T00:13:58;0.70;28.20
67182;DHT22;54114;53.524;49.396;2023-04-15T00:16:28;0.70;28.20
67182;DHT22;54114;53.524;49.396;2023-04-15T00:18:56;0.70;28.30
67182;DHT22;54114;53.524;49.396;2023-04-15T00:21:23;0.60;28.40
67182;DHT22;54114;53.524;49.396;2023-04-15T00:23:56;0.60;28.40
67182;DHT22;54114;53.524;49.396;2023-04-15T00:26:28;0.60;28.50
67182;DHT22;54114;53.524;49.396;2023-04-15T00:28:59;0.60;28.50
67182;DHT22;54114;53.524;49.396;2023-04-15T00:31:31;0.50;28.50
67182;DHT22;54114;53.524;49.396;2023-04-15T00:34:00;0.50;28.60
67182;DHT22;54114;53.524;49.396;2023-04-15T00:36:29;0.50;28.70
67182;DHT22;54114;53.524;49.396;2023-04-15T00:39:00;0.50;28.70
67182;DHT22;54114;53.524;49.396;2023-04-15T00:41:32;0.40;28.70
67182;DHT22;54114;53.524;49.396;2023-04-15T00:44:06;0.40;28.70
67182;DHT22;54114;53.524;49.396;2023-04-15T00:46:39;0.40;28.80
67182;DHT22;54114;53.524;49.396;2023-04-15T00:49:06;0.30;28.80
67182;DHT22;54114;53.524;49.396;2023-04-15T00:51:38;0.30;28.80
67182;DHT22;54114;53.524;49.396;2023-04-15T00:54:07;0.30;28.90
67182;DHT22;54114;53.524;49.396;2023-04-15T00:56:37;0.30;29.00
67182;DHT22;54114;53.524;49.396;2023-04-15T00:59:07;0.20;29.00
67182;DHT22;54114;53.524;49.396;2023-04-15T01:01:42;0.20;29.60
67182;DHT22;54114;53.524;49.396;2023-04-15T01:04:11;0.20;29.20
67182;DHT22;54114;53.524;49.396;2023-04-15T01:06:43;0.10;29.20
67182;DHT22;54114;53.524;49.396;2023-04-15T01:09:16;0.10;29.20
67182;DHT22;54114;53.524;49.396;2023-04-15T01:11:45;0.00;29.20
67182;DHT22;54114;53.524;49.396;2023-04-15T01:14:14;0.00;29.30
67182;DHT22;54114;53.524;49.396;2023-04-15T01:16:46;-0.10;29.30
67182;DHT22;54114;53.524;49.396;2023-04-15T01:19:16;-0.10;29.40
67182;DHT22;54114;53.524;49.396;2023-04-15T01:21:50;-0.10;29.40
67182;DHT22;54114;53.524;49.396;2023-04-15T01:24:27;-0.10;29.50
67182;DHT22;54114;53.524;49.396;2023-04-15T01:26:55;-0.10;29.50
67182;DHT22;54114;53.524;49.396;2023-04-15T01:29:22;-0.20;29.60
67182;DHT22;54114;53.524;49.396;2023-04-15T01:31:55;-0.20;29.60
67182;DHT22;54114;53.524;49.396;2023-04-15T01:34:24;-0.20;29.60
67182;DHT22;54114;53.524;49.396;2023-04-15T01:36:51;-0.20;29.60
67182;DHT22;54114;53.524;49.396;2023-04-15T01:39:19;-0.20;29.70
67182;DHT22;54114;53.524;49.396;2023-04-15T01:41:49;-0.30;29.70
67182;DHT22;54114;53.524;49.396;2023-04-15T01:44:15;-0.30;29.70
67182;DHT22;54114;53.524;49.396;2023-04-15T01:46:44;-0.30;29.80
67182;DHT22;54114;53.524;49.396;2023-04-15T01:49:16;-0.30;29.80
67182;DHT22;54114;53.524;49.396;2023-04-15T01:51:45;-0.40;29.80
67182;DHT22;54114;53.524;49.396;2023-04-15T01:54:11;-0.40;29.90
67182;DHT22;54114;53.524;49.396;2023-04-15T01:56:41;-0.40;29.90
67182;DHT22;54114;53.524;49.396;2023-04-15T01:59:09;-0.40;30.00
67182;DHT22;54114;53.524;49.396;2023-04-15T02:01:39;-0.40;30.00
67182;DHT22;54114;53.524;49.396;2023-04-15T02:04:08;-0.40;30.00
67182;DHT22;54114;53.524;49.396;2023-04-15T02:06:43;-0.50;30.00
67182;DHT22;54114;53.524;49.396;2023-04-15T02:09:13;-0.50;30.20
67182;DHT22;54114;53.524;49.396;2023-04-15T02:11:45;-0.50;30.20
67182;DHT22;54114;53.524;49.396;2023-04-15T02:14:18;-0.50;30.30
67182;DHT22;54114;53.524;49.396;2023-04-15T02:16:47;-0.60;30.30
67182;DHT22;54114;53.524;49.396;2023-04-15T02:19:16;-0.50;30.30
67182;DHT22;54114;53.524;49.396;2023-04-15T02:21:43;-0.50;30.50
67182;DHT22;54114;53.524;49.396;2023-04-15T02:24:11;-0.50;30.50
67182;DHT22;54114;53.524;49.396;2023-04-15T02:26:44;-0.50;30.60
67182;DHT22;54114;53.524;49.396;2023-04-15T02:29:16;-0.40;30.60
67182;DHT22;54114;53.524;49.396;2023-04-15T02:31:47;-0.40;30.60
67182;DHT22;54114;53.524;49.396;2023-04-15T02:34:21;-0.40;30.60
67182;DHT22;54114;53.524;49.396;2023-04-15T02:36:54;-0.30;30.60
67182;DHT22;54114;53.524;49.396;2023-04-15T02:39:23;-0.30;30.70
67182;DHT22;54114;53.524;49.396;2023-04-15T02:41:55;-0.30;30.60
67182;DHT22;54114;53.524;49.396;2023-04-15T02:44:30;-0.30;30.60
67182;DHT22;54114;53.524;49.396;2023-04-15T02:47:03;-0.30;30.70
67182;DHT22;54114;53.524;49.396;2023-04-15T02:49:32;-0.20;30.70
67182;DHT22;54114;53.524;49.396;2023-04-15T02:52:01;-0.20;30.70
67182;DHT22;54114;53.524;49.396;2023-04-15T02:54:34;-0.10;30.70
67182;DHT22;54114;53.524;49.396;2023-04-15T02:57:08;0.00;30.70
67182;DHT22;54114;53.524;49.396;2023-04-15T02:59:37;0.00;30.70
67182;DHT22;54114;53.524;49.396;2023-04-15T03:02:10;0.10;30.70
67182;DHT22;54114;53.524;49.396;2023-04-15T03:04:39;0.10;30.70
67182;DHT22;54114;53.524;49.396;2023-04-15T03:07:08;0.20;30.70
67182;DHT22;54114;53.524;49.396;2023-04-15T03:09:37;0.30;30.60
67182;DHT22;54114;53.524;49.396;2023-04-15T03:12:12;0.40;30.50
67182;DHT22;54114;53.524;49.396;2023-04-15T03:14:41;0.50;30.40
67182;DHT22;54114;53.524;49.396;2023-04-15T03:17:10;0.70;30.40
67182;DHT22;54114;53.524;49.396;2023-04-15T03:19:40;0.80;30.90
67182;DHT22;54114;53.524;49.396;2023-04-15T03:22:11;0.90;30.20
67182;DHT22;54114;53.524;49.396;2023-04-15T03:24:40;1.00;30.10
67182;DHT22;54114;53.524;49.396;2023-04-15T03:27:11;1.10;30.00
67182;DHT22;54114;53.524;49.396;2023-04-15T03:29:42;1.30;30.00
67182;DHT22;54114;53.524;49.396;2023-04-15T03:32:13;1.40;29.90
67182;DHT22;54114;53.524;49.396;2023-04-15T03:34:43;1.50;29.80
67182;DHT22;54114;53.524;49.396;2023-04-15T03:37:14;1.70;29.70
67182;DHT22;54114;53.524;49.396;2023-04-15T03:39:46;1.80;29.50
67182;DHT22;54114;53.524;49.396;2023-04-15T03:42:16;1.90;29.40
67182;DHT22;54114;53.524;49.396;2023-04-15T03:44:42;2.00;29.30
67182;DHT22;54114;53.524;49.396;2023-04-15T03:47:09;2.20;29.20
67182;DHT22;54114;53.524;49.396;2023-04-15T03:49:38;2.30;29.10
67182;DHT22;54114;53.524;49.396;2023-04-15T03:52:10;2.50;29.00
67182;DHT22;54114;53.524;49.396;2023-04-15T03:54:39;2.60;29.10
67182;DHT22;54114;53.524;49.396;2023-04-15T03:57:08;2.80;28.70
67182;DHT22;54114;53.524;49.396;2023-04-15T03:59:39;2.80;28.50
67182;DHT22;54114;53.524;49.396;2023-04-15T04:02:06;3.00;28.50
67182;DHT22;54114;53.524;49.396;2023-04-15T04:04:32;3.10;28.30
67182;DHT22;54114;53.524;49.396;2023-04-15T04:07:01;3.20;28.20
67182;DHT22;54114;53.524;49.396;2023-04-15T04:09:28;3.30;28.20
67182;DHT22;54114;53.524;49.396;2023-04-15T04:11:55;3.40;28.20
67182;DHT22;54114;53.524;49.396;2023-04-15T04:14:22;3.70;28.10
67182;DHT22;54114;53.524;49.396;2023-04-15T04:16:59;3.80;27.80
67182;DHT22;54114;53.524;49.396;2023-04-15T04:19:26;4.00;27.60
67182;DHT22;54114;53.524;49.396;2023-04-15T04:21:55;4.00;27.30
67182;DHT22;54114;53.524;49.396;2023-04-15T04:24:24;4.20;27.30
67182;DHT22;54114;53.524;49.396;2023-04-15T04:27:00;4.30;27.50
67182;DHT22;54114;53.524;49.396;2023-04-15T04:29:29;4.50;27.00
67182;DHT22;54114;53.524;49.396;2023-04-15T04:31:56;4.60;26.80
67182;DHT22;54114;53.524;49.396;2023-04-15T04:34:25;4.80;26.60
67182;DHT22;54114;53.524;49.396;2023-04-15T04:36:52;4.90;26.60
67182;DHT22;54114;53.524;49.396;2023-04-15T04:39:18;5.10;26.20
67182;DHT22;54114;53.524;49.396;2023-04-15T04:41:48;5.20;26.10
67182;DHT22;54114;53.524;49.396;2023-04-15T04:44:19;5.30;26.00
67182;DHT22;54114;53.524;49.396;2023-04-15T04:46:45;5.30;26.00
67182;DHT22;54114;53.524;49.396;2023-04-15T04:49:14;5.40;25.80
67182;DHT22;54114;53.524;49.396;2023-04-15T04:51:47;5.60;25.80
67182;DHT22;54114;53.524;49.396;2023-04-15T04:54:14;5.70;25.60
67182;DHT22;54114;53.524;49.396;2023-04-15T04:56:43;5.70;25.30
67182;DHT22;54114;53.524;49.396;2023-04-15T04:59:10;5.80;25.20
67182;DHT22;54114;53.524;49.396;2023-04-15T05:01:37;5.90;25.10
67182;DHT22;54114;53.524;49.396;2023-04-15T05:04:03;6.10;25.00
67182;DHT22;54114;53.524;49.396;2023-04-15T05:06:32;6.20;25.00
67182;DHT22;54114;53.524;49.396;2023-04-15T05:09:04;6.40;25.00
67182;DHT22;54114;53.524;49.396;2023-04-15T05:11:34;6.60;25.00
67182;DHT22;54114;53.524;49.396;2023-04-15T05:14:00;6.80;24.60
67182;DHT22;54114;53.524;49.396;2023-04-15T05:16:29;6.90;24.40
67182;DHT22;54114;53.524;49.396;2023-04-15T05:18:58;7.00;24.20
67182;DHT22;54114;53.524;49.396;2023-04-15T05:21:28;7.10;24.00
67182;DHT22;54114;53.524;49.396;2023-04-15T05:23:58;7.10;24.00
67182;DHT22;54114;53.524;49.396;2023-04-15T05:26:25;7.20;23.90
67182;DHT22;54114;53.524;49.396;2023-04-15T05:28:52;7.30;23.90
67182;DHT22;54114;53.524;49.396;2023-04-15T05:31:19;7.50;23.80
67182;DHT22;54114;53.524;49.396;2023-04-15T05:33:45;7.60;24.30
67182;DHT22;54114;53.524;49.396;2023-04-15T05:36:12;7.70;23.70
67182;DHT22;54114;53.524;49.396;2023-04-15T05:38:39;7.80;23.60
67182;DHT22;54114;53.524;49.396;2023-04-15T05:41:08;7.90;23.40
67182;DHT22;54114;53.524;49.396;2023-04-15T05:43:35;8.20;23.40
67182;DHT22;54114;53.524;49.396;2023-04-15T05:46:01;8.40;23.30
67182;DHT22;54114;53.524;49.396;2023-04-15T05:48:28;8.60;23.20
67182;DHT22;54114;53.524;49.396;2023-04-15T05:50:55;8.80;23.00
67182;DHT22;54114;53.524;49.396;2023-04-15T05:53:24;9.10;22.80
67182;DHT22;54114;53.524;49.396;2023-04-15T05:55:55;9.20;22.80
67182;DHT22;54114;53.524;49.396;2023-04-15T05:58:25;9.30;22.60
67182;DHT22;54114;53.524;49.396;2023-04-15T06:00:52;9.50;22.60
67182;DHT22;54114;53.524;49.396;2023-04-15T06:03:21;9.70;22.40
67182;DHT22;54114;53.524;49.396;2023-04-15T06:05:50;9.80;22.20
67182;DHT22;54114;53.524;49.396;2023-04-15T06:08:19;9.90;22.10
67182;DHT22;54114;53.524;49.396;2023-04-15T06:10:47;9.90;22.10
67182;DHT22;54114;53.524;49.396;2023-04-15T06:13:13;10.00;22.00
67182;DHT22;54114;53.524;49.396;2023-04-15T06:15:41;10.00;22.10
67182;DHT22;54114;53.524;49.396;2023-04-15T06:18:08;10.00;21.80
67182;DHT22;54114;53.524;49.396;2023-04-15T06:20:35;10.20;21.70
67182;DHT22;54114;53.524;49.396;2023-04-15T06:23:01;10.40;21.60
67182;DHT22;54114;53.524;49.396;2023-04-15T06:25:28;10.50;21.40
67182;DHT22;54114;53.524;49.396;2023-04-15T06:27:59;10.70;21.20
67182;DHT22;54114;53.524;49.396;2023-04-15T06:30:33;11.00;21.20
67182;DHT22;54114;53.524;49.396;2023-04-15T06:33:01;11.40;21.10
67182;DHT22;54114;53.524;49.396;2023-04-15T06:35:31;11.80;20.90
67182;DHT22;54114;53.524;49.396;2023-04-15T06:38:01;12.00;20.80
67182;DHT22;54114;53.524;49.396;2023-04-15T06:40:30;12.30;20.60
67182;DHT22;54114;53.524;49.396;2023-04-15T06:42:59;12.50;20.30
67182;DHT22;54114;53.524;49.396;2023-04-15T06:45:29;12.60;20.20
67182;DHT22;54114;53.524;49.396;2023-04-15T06:47:58;12.50;19.90
67182;DHT22;54114;53.524;49.396;2023-04-15T06:50:28;12.60;19.90
67182;DHT22;54114;53.524;49.396;2023-04-15T06:52:55;12.80;19.90
67182;DHT22;54114;53.524;49.396;2023-04-15T06:55:22;13.00;19.80
67182;DHT22;54114;53.524;49.396;2023-04-15T06:57:48;13.30;19.70
67182;DHT22;54114;53.524;49.396;2023-04-15T07:00:18;13.40;19.20
67182;DHT22;54114;53.524;49.396;2023-04-15T07:02:45;13.30;19.10
67182;DHT22;54114;53.524;49.396;2023-04-15T07:05:11;13.40;19.20
67182;DHT22;54114;53.524;49.396;2023-04-15T07:07:38;13.60;19.10
67182;DHT22;54114;53.524;49.396;2023-04-15T07:10:05;13.80;19.10
67182;DHT22;54114;53.524;49.396;2023-04-15T07:12:33;13.90;18.90
67182;DHT22;54114;53.524;49.396;2023-04-15T07:15:06;14.00;18.80
67182;DHT22;54114;53.524;49.396;2023-04-15T07:17:35;14.20;18.60
67182;DHT22;54114;53.524;49.396;2023-04-15T07:20:02;14.40;18.80
67182;DHT22;54114;53.524;49.396;2023-04-15T07:22:29;14.50;18.70
67182;DHT22;54114;53.524;49.396;2023-04-15T07:24:56;14.70;18.50
67182;DHT22;54114;53.524;49.396;2023-04-15T07:27:26;14.70;18.40
67182;DHT22;54114;53.524;49.396;2023-04-15T07:29:52;14.70;18.30
67182;DHT22;54114;53.524;49.396;2023-04-15T07:32:19;14.70;18.30
67182;DHT22;54114;53.524;49.396;2023-04-15T07:34:48;14.50;18.20
67182;DHT22;54114;53.524;49.396;2023-04-15T07:37:20;14.50;18.20
67182;DHT22;54114;53.524;49.396;2023-04-15T07:39:50;14.50;18.20
67182;DHT22;54114;53.524;49.396;2023-04-15T07:42:19;14.60;18.20
67182;DHT22;54114;53.524;49.396;2023-04-15T07:44:48;14.70;18.10
67182;DHT22;54114;53.524;49.396;2023-04-15T07:47:19;14.70;18.10
67182;DHT22;54114;53.524;49.396;2023-04-15T07:49:46;14.70;17.90
67182;DHT22;54114;53.524;49.396;2023-04-15T07:52:13;14.80;17.90
67182;DHT22;54114;53.524;49.396;2023-04-15T07:54:44;14.80;17.80
67182;DHT22;54114;53.524;49.396;2023-04-15T07:57:11;14.80;17.70
67182;DHT22;54114;53.524;49.396;2023-04-15T07:59:37;14.90;17.80
67182;DHT22;54114;53.524;49.396;2023-04-15T08:02:08;15.00;17.60
67182;DHT22;54114;53.524;49.396;2023-04-15T08:04:40;15.10;17.60
67182;DHT22;54114;53.524;49.396;2023-04-15T08:07:09;15.10;17.40
67182;DHT22;54114;53.524;49.396;2023-04-15T08:09:39;15.20;17.40
67182;DHT22;54114;53.524;49.396;2023-04-15T08:12:09;15.30;17.50
67182;DHT22;54114;53.524;49.396;2023-04-15T08:14:41;15.50;17.30
67182;DHT22;54114;53.524;49.396;2023-04-15T08:17:11;15.60;17.10
67182;DHT22;54114;53.524;49.396;2023-04-15T08:19:41;15.70;17.10
67182;DHT22;54114;53.524;49.396;2023-04-15T08:22:10;15.80;16.80
67182;DHT22;54114;53.524;49.396;2023-04-15T08:24:41;15.80;16.70
67182;DHT22;54114;53.524;49.396;2023-04-15T08:27:08;15.90;16.70
67182;DHT22;54114;53.524;49.396;2023-04-15T08:29:37;16.10;16.80
67182;DHT22;54114;53.524;49.396;2023-04-15T08:32:06;16.30;16.60
67182;DHT22;54114;53.524;49.396;2023-04-15T08:34:36;16.40;16.60
67182;DHT22;54114;53.524;49.396;2023-04-15T08:37:05;16.60;16.60
67182;DHT22;54114;53.524;49.396;2023-04-15T08:39:32;16.80;16.30
67182;DHT22;54114;53.524;49.396;2023-04-15T08:42:02;16.70;16.10
67182;DHT22;54114;53.524;49.396;2023-04-15T08:44:35;16.60;16.00
67182;DHT22;54114;53.524;49.396;2023-04-15T08:47:02;16.70;16.10
67182;DHT22;54114;53.524;49.396;2023-04-15T08:49:31;16.80;16.10
67182;DHT22;54114;53.524;49.396;2023-04-15T08:52:01;16.80;16.10
67182;DHT22;54114;53.524;49.396;2023-04-15T08:54:31;16.90;16.00
67182;DHT22;54114;53.524;49.396;2023-04-15T08:57:04;16.80;15.90
67182;DHT22;54114;53.524;49.396;2023-04-15T08:59:34;16.90;15.80
67182;DHT22;54114;53.524;49.396;2023-04-15T09:02:04;16.90;15.80
67182;DHT22;54114;53.524;49.396;2023-04-15T09:04:32;17.00;15.70
67182;DHT22;54114;53.524;49.396;2023-04-15T09:06:59;17.00;15.70
67182;DHT22;54114;53.524;49.396;2023-04-15T09:09:26;17.00;15.50
67182;DHT22;54114;53.524;49.396;2023-04-15T09:11:53;17.00;15.70
67182;DHT22;54114;53.524;49.396;2023-04-15T09:14:20;17.10;15.80
67182;DHT22;54114;53.524;49.396;2023-04-15T09:17:03;17.40;16.10
67182;DHT22;54114;53.524;49.396;2023-04-15T09:19:34;17.70;15.60
67182;DHT22;54114;53.524;49.396;2023-04-15T09:22:01;17.90;15.40
67182;DHT22;54114;53.524;49.396;2023-04-15T09:24:38;17.90;15.30
67182;DHT22;54114;53.524;49.396;2023-04-15T09:27:11;17.80;15.80
67182;DHT22;54114;53.524;49.396;2023-04-15T09:29:49;17.70;15.30
67182;DHT22;54114;53.524;49.396;2023-04-15T09:32:18;17.80;15.30
67182;DHT22;54114;53.524;49.396;2023-04-15T09:34:48;17.90;15.30
67182;DHT22;54114;53.524;49.396;2023-04-15T09:37:14;18.00;15.30
67182;DHT22;54114;53.524;49.396;2023-04-15T09:39:50;18.00;15.00
67182;DHT22;54114;53.524;49.396;2023-04-15T09:42:18;17.80;15.00
67182;DHT22;54114;53.524;49.396;2023-04-15T09:44:53;17.70;15.00
67182;DHT22;54114;53.524;49.396;2023-04-15T09:47:30;17.60;15.00
67182;DHT22;54114;53.524;49.396;2023-04-15T09:49:58;17.60;15.20
67182;DHT22;54114;53.524;49.396;2023-04-15T09:52:28;17.70;15.20
67182;DHT22;54114;53.524;49.396;2023-04-15T09:54:58;17.90;15.20
67182;DHT22;54114;53.524;49.396;2023-04-15T09:57:33;18.10;15.20
67182;DHT22;54114;53.524;49.396;2023-04-15T10:00:07;18.10;15.00
67182;DHT22;54114;53.524;49.396;2023-04-15T10:02:42;18.30;15.00
67182;DHT22;54114;53.524;49.396;2023-04-15T10:05:13;18.30;15.00
67182;DHT22;54114;53.524;49.396;2023-04-15T10:07:42;18.20;14.80
67182;DHT22;54114;53.524;49.396;2023-04-15T10:10:11;18.00;14.90
67182;DHT22;54114;53.524;49.396;2023-04-15T10:12:40;18.10;14.90
67182;DHT22;54114;53.524;49.396;2023-04-15T10:15:13;18.20;14.80
67182;DHT22;54114;53.524;49.396;2023-04-15T10:17:43;18.30;14.70
67182;DHT22;54114;53.524;49.396;2023-04-15T10:20:11;18.40;14.70
67182;DHT22;54114;53.524;49.396;2023-04-15T10:22:43;18.50;14.80
67182;DHT22;54114;53.524;49.396;2023-04-15T10:25:16;18.70;14.90
67182;DHT22;54114;53.524;49.396;2023-04-15T10:27:44;18.80;14.80
67182;DHT22;54114;53.524;49.396;2023-04-15T10:30:14;18.90;14.90
67182;DHT22;54114;53.524;49.396;2023-04-15T10:32:44;19.00;14.80
67182;DHT22;54114;53.524;49.396;2023-04-15T10:35:11;19.00;14.70
67182;DHT22;54114;53.524;49.396;2023-04-15T10:37:41;19.00;14.70
67182;DHT22;54114;53.524;49.396;2023-04-15T10:43:00;18.90;14.80
67182;DHT22;54114;53.524;49.396;2023-04-15T10:45:32;19.00;14.80
67182;DHT22;54114;53.524;49.396;2023-04-15T10:48:05;19.30;14.80
67182;DHT22;54114;53.524;49.396;2023-04-15T10:50:36;19.40;14.70
67182;DHT22;54114;53.524;49.396;2023-04-15T10:53:09;19.40;14.60
67182;DHT22;54114;53.524;49.396;2023-04-15T10:55:38;19.40;14.50
67182;DHT22;54114;53.524;49.396;2023-04-15T10:58:09;19.40;14.50
67182;DHT22;54114;53.524;49.396;2023-04-15T11:00:38;19.30;14.50
67182;DHT22;54114;53.524;49.396;2023-04-15T11:03:08;19.30;14.40
67182;DHT22;54114;53.524;49.396;2023-04-15T11:08:08;19.30;14.30
67182;DHT22;54114;53.524;49.396;2023-04-15T11:13:13;19.60;14.40
67182;DHT22;54114;53.524;49.396;2023-04-15T11:15:45;19.70;14.30
67182;DHT22;54114;53.524;49.396;2023-04-15T11:20:48;19.60;14.20
67182;DHT22;54114;53.524;49.396;2023-04-15T11:23:29;19.60;14.30
67182;DHT22;54114;53.524;49.396;2023-04-15T11:26:01;19.30;14.20
67182;DHT22;54114;53.524;49.396;2023-04-15T11:28:32;19.10;14.20
67182;DHT22;54114;53.524;49.396;2023-04-15T11:31:16;19.20;14.90
67182;DHT22;54114;53.524;49.396;2023-04-15T11:33:58;19.20;14.30
67182;DHT22;54114;53.524;49.396;2023-04-15T11:36:30;19.30;14.30
67182;DHT22;54114;53.524;49.396;2023-04-15T11:38:59;19.40;14.10
67182;DHT22;54114;53.524;49.396;2023-04-15T11:41:30;19.50;14.20
67182;DHT22;54114;53.524;49.396;2023-04-15T11:44:00;19.60;14.40
67182;DHT22;54114;53.524;49.396;2023-04-15T11:46:43;19.60;14.10
67182;DHT22;54114;53.524;49.396;2023-04-15T11:49:30;19.60;14.10
67182;DHT22;54114;53.524;49.396;2023-04-15T11:52:13;19.60;13.80
67182;DHT22;54114;53.524;49.396;2023-04-15T11:54:42;19.50;13.70
67182;DHT22;54114;53.524;49.396;2023-04-15T11:57:12;19.50;13.80
67182;DHT22;54114;53.524;49.396;2023-04-15T11:59:44;19.50;13.80
67182;DHT22;54114;53.524;49.396;2023-04-15T12:02:13;19.60;14.00
67182;DHT22;54114;53.524;49.396;2023-04-15T12:04:40;19.60;14.10
67182;DHT22;54114;53.524;49.396;2023-04-15T12:07:10;19.60;14.00
67182;DHT22;54114;53.524;49.396;2023-04-15T12:09:39;19.50;13.90
67182;DHT22;54114;53.524;49.396;2023-04-15T12:12:15;19.50;13.90
67182;DHT22;54114;53.524;49.396;2023-04-15T12:14:50;19.40;14.00
67182;DHT22;54114;53.524;49.396;2023-04-15T12:17:22;19.20;13.90
67182;DHT22;54114;53.524;49.396;2023-04-15T12:19:58;19.20;14.00
67182;DHT22;54114;53.524;49.396;2023-04-15T12:22:28;19.30;14.00
67182;DHT22;54114;53.524;49.396;2023-04-15T12:24:57;19.20;13.90
67182;DHT22;54114;53.524;49.396;2023-04-15T12:27:30;19.00;14.00
67182;DHT22;54114;53.524;49.396;2023-04-15T12:30:09;18.90;14.10
67182;DHT22;54114;53.524;49.396;2023-04-15T12:32:41;18.80;14.20
67182;DHT22;54114;53.524;49.396;2023-04-15T12:35:11;18.90;14.20
67182;DHT22;54114;53.524;49.396;2023-04-15T12:37:37;18.90;14.40
67182;DHT22;54114;53.524;49.396;2023-04-15T12:40:07;19.10;14.30
67182;DHT22;54114;53.524;49.396;2023-04-15T12:42:37;19.10;14.30
67182;DHT22;54114;53.524;49.396;2023-04-15T12:45:09;19.20;14.30
67182;DHT22;54114;53.524;49.396;2023-04-15T12:47:35;19.20;14.30
67182;DHT22;54114;53.524;49.396;2023-04-15T12:50:02;19.20;14.20
67182;DHT22;54114;53.524;49.396;2023-04-15T12:52:32;19.10;14.10
67182;DHT22;54114;53.524;49.396;2023-04-15T12:54:58;18.90;14.10
67182;DHT22;54114;53.524;49.396;2023-04-15T12:57:25;18.90;14.10
67182;DHT22;54114;53.524;49.396;2023-04-15T12:59:55;18.80;14.20
67182;DHT22;54114;53.524;49.396;2023-04-15T13:02:27;18.80;14.20
67182;DHT22;54114;53.524;49.396;2023-04-15T13:04:56;18.70;14.30
67182;DHT22;54114;53.524;49.396;2023-04-15T13:07:25;18.70;14.50
67182;DHT22;54114;53.524;49.396;2023-04-15T13:09:51;18.60;14.60
67182;DHT22;54114;53.524;49.396;2023-04-15T13:12:18;18.60;15.10
67182;DHT22;54114;53.524;49.396;2023-04-15T13:14:51;18.50;14.60
67182;DHT22;54114;53.524;49.396;2023-04-15T13:17:18;18.50;14.60
67182;DHT22;54114;53.524;49.396;2023-04-15T13:19:46;18.60;14.70
67182;DHT22;54114;53.524;49.396;2023-04-15T13:22:15;18.60;14.60
67182;DHT22;54114;53.524;49.396;2023-04-15T13:24:45;18.60;14.50
67182;DHT22;54114;53.524;49.396;2023-04-15T13:27:12;18.50;14.30
67182;DHT22;54114;53.524;49.396;2023-04-15T13:29:43;18.30;14.30
67182;DHT22;54114;53.524;49.396;2023-04-15T13:32:12;18.20;14.40
67182;DHT22;54114;53.524;49.396;2023-04-15T13:34:39;18.00;14.40
67182;DHT22;54114;53.524;49.396;2023-04-15T13:37:09;18.00;14.50
67182;DHT22;54114;53.524;49.396;2023-04-15T13:39:36;18.00;14.40
67182;DHT22;54114;53.524;49.396;2023-04-15T13:42:03;17.90;14.40
67182;DHT22;54114;53.524;49.396;2023-04-15T13:44:34;17.80;14.40
67182;DHT22;54114;53.524;49.396;2023-04-15T13:47:08;17.60;14.30
67182;DHT22;54114;53.524;49.396;2023-04-15T13:49:43;17.50;14.30
67182;DHT22;54114;53.524;49.396;2023-04-15T13:52:15;17.40;14.40
67182;DHT22;54114;53.524;49.396;2023-04-15T13:54:49;17.30;14.50
67182;DHT22;54114;53.524;49.396;2023-04-15T13:57:21;17.30;14.50
67182;DHT22;54114;53.524;49.396;2023-04-15T13:59:47;17.30;14.50
67182;DHT22;54114;53.524;49.396;2023-04-15T14:02:14;17.30;14.50
67182;DHT22;54114;53.524;49.396;2023-04-15T14:04:41;17.20;14.50
67182;DHT22;54114;53.524;49.396;2023-04-15T14:07:07;17.10;14.40
67182;DHT22;54114;53.524;49.396;2023-04-15T14:09:34;17.00;14.30
67182;DHT22;54114;53.524;49.396;2023-04-15T14:12:01;16.80;14.30
67182;DHT22;54114;53.524;49.396;2023-04-15T14:14:28;16.70;14.30
67182;DHT22;54114;53.524;49.396;2023-04-15T14:16:55;16.50;14.40
67182;DHT22;54114;53.524;49.396;2023-04-15T14:19:28;16.50;14.50
67182;DHT22;54114;53.524;49.396;2023-04-15T14:22:00;16.50;14.50
67182;DHT22;54114;53.524;49.396;2023-04-15T14:24:30;16.30;14.40
67182;DHT22;54114;53.524;49.396;2023-04-15T14:26:59;16.20;14.40
67182;DHT22;54114;53.524;49.396;2023-04-15T14:29:27;16.10;14.60
67182;DHT22;54114;53.524;49.396;2023-04-15T14:31:54;15.90;14.60
67182;DHT22;54114;53.524;49.396;2023-04-15T14:34:22;15.80;14.60
67182;DHT22;54114;53.524;49.396;2023-04-15T14:36:51;15.80;14.60
67182;DHT22;54114;53.524;49.396;2023-04-15T14:39:20;15.80;14.70
67182;DHT22;54114;53.524;49.396;2023-04-15T14:41:52;15.70;14.70
67182;DHT22;54114;53.524;49.396;2023-04-15T14:44:19;15.70;14.70
67182;DHT22;54114;53.524;49.396;2023-04-15T14:46:45;15.60;14.70
67182;DHT22;54114;53.524;49.396;2023-04-15T14:49:12;15.60;14.80
67182;DHT22;54114;53.524;49.396;2023-04-15T14:51:39;15.50;14.90
67182;DHT22;54114;53.524;49.396;2023-04-15T14:54:08;15.40;14.90
67182;DHT22;54114;53.524;49.396;2023-04-15T14:56:35;15.30;14.90
67182;DHT22;54114;53.524;49.396;2023-04-15T14:59:04;15.20;14.90
67182;DHT22;54114;53.524;49.396;2023-04-15T15:01:32;15.00;14.90
67182;DHT22;54114;53.524;49.396;2023-04-15T15:03:59;14.90;14.90
67182;DHT22;54114;53.524;49.396;2023-04-15T15:06:28;14.80;14.90
67182;DHT22;54114;53.524;49.396;2023-04-15T15:08:57;14.70;15.00
67182;DHT22;54114;53.524;49.396;2023-04-15T15:11:27;14.50;15.10
67182;DHT22;54114;53.524;49.396;2023-04-15T15:13:54;14.20;15.10
67182;DHT22;54114;53.524;49.396;2023-04-15T15:16:29;14.00;15.20
67182;DHT22;54114;53.524;49.396;2023-04-15T15:19:03;13.70;15.30
67182;DHT22;54114;53.524;49.396;2023-04-15T15:21:30;13.50;15.50
67182;DHT22;54114;53.524;49.396;2023-04-15T15:23:59;13.20;15.60
67182;DHT22;54114;53.524;49.396;2023-04-15T15:26:26;13.00;15.70
67182;DHT22;54114;53.524;49.396;2023-04-15T15:28:54;12.80;15.80
67182;DHT22;54114;53.524;49.396;2023-04-15T15:31:20;12.60;16.00
67182;DHT22;54114;53.524;49.396;2023-04-15T15:33:47;12.40;16.10
67182;DHT22;54114;53.524;49.396;2023-04-15T15:36:15;12.30;16.20
67182;DHT22;54114;53.524;49.396;2023-04-15T15:38:46;12.10;16.30
67182;DHT22;54114;53.524;49.396;2023-04-15T15:41:15;12.00;16.50
67182;DHT22;54114;53.524;49.396;2023-04-15T15:43:46;11.80;16.60
67182;DHT22;54114;53.524;49.396;2023-04-15T15:46:15;11.60;16.80